createdAt,value
2023-06-14T00:01:04.059Z,2.55
2023-06-14T00:06:02.901Z,2.00
2023-06-14T00:11:01.850Z,2.50
2023-06-14T00:16:00.796Z,2.30
2023-06-14T00:20:59.647Z,2.20
2023-06-14T00:26:01.216Z,2.38
2023-06-14T00:31:00.038Z,2.38
2023-06-14T00:36:00.991Z,2.85
2023-06-14T00:41:00.033Z,2.15
2023-06-14T00:45:59.181Z,2.22
2023-06-14T00:50:59.463Z,2.40
2023-06-14T00:55:58.413Z,3.38
2023-06-14T01:00:57.596Z,2.25
2023-06-14T01:06:27.970Z,2.17
2023-06-14T01:11:38.702Z,2.13
2023-06-14T01:16:40.875Z,2.90
2023-06-14T01:21:43.081Z,2.55
2023-06-14T01:26:47.044Z,2.67
2023-06-14T01:31:46.904Z,3.28
2023-06-14T01:36:47.285Z,2.80
2023-06-14T01:41:47.863Z,2.83
2023-06-14T01:46:46.895Z,2.65
2023-06-14T01:51:45.996Z,3.10
2023-06-14T01:56:44.983Z,2.42
2023-06-14T02:01:43.990Z,2.30
2023-06-14T02:06:42.913Z,2.92
2023-06-14T02:11:41.781Z,2.72
2023-06-14T02:16:40.669Z,3.17
2023-06-14T02:21:40.558Z,2.42
2023-06-14T02:26:39.545Z,2.33
2023-06-14T02:31:39.686Z,2.80
2023-06-14T02:36:42.838Z,3.15
2023-06-14T02:41:42.070Z,2.97
2023-06-14T02:46:41.323Z,2.70
2023-06-14T02:51:40.127Z,3.15
2023-06-14T02:56:39.023Z,3.50
2023-06-14T03:01:42.255Z,2.63
2023-06-14T03:06:45.495Z,3.17
2023-06-14T03:11:46.530Z,2.50
2023-06-14T03:16:46.304Z,2.88
2023-06-14T03:21:46.536Z,3.17
2023-06-14T03:26:45.733Z,2.85
2023-06-14T03:31:59.847Z,3.30
2023-06-14T03:37:06.363Z,3.05
2023-06-14T03:42:06.333Z,2.85
2023-06-14T03:47:06.050Z,2.80
2023-06-14T03:52:05.449Z,4.10
2023-06-14T03:57:07.228Z,3.60
2023-06-14T04:02:07.584Z,2.92
2023-06-14T04:07:06.682Z,2.95
2023-06-14T04:12:06.709Z,2.60
2023-06-14T04:17:05.927Z,3.13
2023-06-14T04:22:05.392Z,3.08
2023-06-14T04:27:07.947Z,2.78
2023-06-14T04:32:11.271Z,3.22
2023-06-14T04:37:13.030Z,3.03
2023-06-14T04:47:17.177Z,2.60
2023-06-14T04:52:16.267Z,3.40
2023-06-14T04:57:18.476Z,3.17
2023-06-14T05:02:20.258Z,2.40
2023-06-14T05:07:19.405Z,3.33
2023-06-14T05:12:19.644Z,3.70
2023-06-14T05:17:18.680Z,4.15
2023-06-14T05:22:17.828Z,3.90
2023-06-14T05:27:17.866Z,4.05
2023-06-14T05:32:16.690Z,3.55
2023-06-14T05:37:15.693Z,3.95
2023-06-14T05:42:14.702Z,3.90
2023-06-14T05:47:13.998Z,4.18
2023-06-14T05:52:14.185Z,4.57
2023-06-14T05:57:13.334Z,4.65
2023-06-14T06:02:12.236Z,4.32
2023-06-14T06:07:11.211Z,4.15
2023-06-14T06:12:10.212Z,4.25
2023-06-14T06:17:09.145Z,3.80
2023-06-14T06:22:08.035Z,3.40
2023-06-14T06:27:09.317Z,4.00
2023-06-14T06:32:10.506Z,4.10
2023-06-14T06:37:09.368Z,3.88
2023-06-14T06:42:08.249Z,4.72
2023-06-14T06:47:11.199Z,4.88
2023-06-14T06:52:10.163Z,4.10
2023-06-14T06:57:09.276Z,4.30
2023-06-14T07:02:08.412Z,4.57
2023-06-14T07:07:07.498Z,4.40
2023-06-14T07:12:06.743Z,4.88
2023-06-14T07:17:06.199Z,4.10
2023-06-14T07:22:05.950Z,4.43
2023-06-14T07:27:05.928Z,4.55
2023-06-14T07:32:05.209Z,4.53
2023-06-14T07:37:04.270Z,4.20
2023-06-14T07:42:03.408Z,4.90
2023-06-14T07:47:03.010Z,4.25
2023-06-14T07:52:01.898Z,3.65
2023-06-14T07:57:01.836Z,3.22
2023-06-14T08:02:00.660Z,2.90
2023-06-14T08:07:00.490Z,2.90
2023-06-14T08:11:59.448Z,2.88
2023-06-14T08:16:58.544Z,2.42
2023-06-14T08:21:57.613Z,2.67
2023-06-14T08:26:57.496Z,2.80
2023-06-14T08:31:56.743Z,2.35
2023-06-14T08:36:55.854Z,2.22
2023-06-14T08:41:56.048Z,2.97
2023-06-14T08:46:58.298Z,2.88
2023-06-14T08:52:02.103Z,2.47
2023-06-14T08:57:01.626Z,2.47
2023-06-14T09:02:12.371Z,2.40
2023-06-14T09:07:14.218Z,2.88
2023-06-14T09:12:13.675Z,2.97
2023-06-14T09:17:14.972Z,2.78
2023-06-14T09:22:13.984Z,2.30
2023-06-14T09:27:16.738Z,3.03
2023-06-14T09:32:15.820Z,3.08
2023-06-14T09:37:27.046Z,3.05
2023-06-14T09:42:29.406Z,3.13
2023-06-14T09:47:28.409Z,2.95
2023-06-14T09:52:29.430Z,2.95
2023-06-14T09:57:32.724Z,3.30
2023-06-14T10:02:37.356Z,3.25
2023-06-14T10:07:41.436Z,3.13
2023-06-14T10:12:41.134Z,2.72
2023-06-14T10:17:46.206Z,2.95
2023-06-14T10:23:04.255Z,2.75
2023-06-14T10:28:31.825Z,2.40
2023-06-14T10:33:31.524Z,2.20
2023-06-14T10:38:33.399Z,2.40
2023-06-14T10:43:32.605Z,2.17
2023-06-14T10:48:31.711Z,2.20
2023-06-14T10:53:42.015Z,2.28
2023-06-14T10:58:42.174Z,2.50
2023-06-14T11:03:53.266Z,2.33
2023-06-14T11:09:13.578Z,2.10
2023-06-14T11:14:12.794Z,2.45
2023-06-14T11:19:11.857Z,2.63
2023-06-14T11:24:13.982Z,2.92
2023-06-14T11:29:12.969Z,3.83
2023-06-14T11:34:13.736Z,3.28
2023-06-14T11:39:12.740Z,3.30
2023-06-14T11:44:15.114Z,3.70
2023-06-14T11:49:14.182Z,3.75
2023-06-14T11:54:13.234Z,3.17
2023-06-14T11:59:15.314Z,3.53
2023-06-14T12:04:14.658Z,3.58
2023-06-14T12:09:18.025Z,3.38
2023-06-14T12:14:18.230Z,3.42
2023-06-14T12:19:18.787Z,3.70
2023-06-14T12:24:17.992Z,3.65
2023-06-14T12:29:17.185Z,3.53
2023-06-14T12:34:16.256Z,3.45
2023-06-14T12:39:15.291Z,3.83
2023-06-14T12:44:14.525Z,3.47
2023-06-14T12:49:13.944Z,3.53
2023-06-14T12:54:13.354Z,2.88
2023-06-14T12:59:12.260Z,3.22
2023-06-14T13:04:11.669Z,3.08
2023-06-14T13:09:11.059Z,2.92
2023-06-14T13:14:21.741Z,3.58
2023-06-14T13:19:25.157Z,3.15
2023-06-14T13:24:24.253Z,3.55
2023-06-14T13:29:24.582Z,3.20
2023-06-14T13:34:23.617Z,3.38
2023-06-14T13:39:22.608Z,3.97
2023-06-14T14:32:01.220Z,3.17
2023-06-14T14:37:00.346Z,2.55
2023-06-14T14:41:59.221Z,3.10
2023-06-14T14:46:58.092Z,2.90
2023-06-14T14:52:03.231Z,2.70
2023-06-14T14:57:08.325Z,3.00
2023-06-14T15:02:07.472Z,3.28
2023-06-14T15:07:07.478Z,2.95
2023-06-14T15:12:08.283Z,2.40
2023-06-14T15:17:08.592Z,2.70
2023-06-14T15:22:08.205Z,2.80
2023-06-14T15:27:07.902Z,3.03
2023-06-14T15:32:10.104Z,2.03
2023-06-14T15:37:09.448Z,3.15
2023-06-14T15:42:09.000Z,3.17
2023-06-14T15:47:08.524Z,3.28
2023-06-14T15:52:08.047Z,2.47
2023-06-14T15:57:08.231Z,2.75
2023-06-14T16:02:07.533Z,3.17
2023-06-14T16:07:06.538Z,3.15
2023-06-14T16:12:06.571Z,3.78
2023-06-14T16:17:06.348Z,3.88
2023-06-14T16:22:07.800Z,3.92
2023-06-14T16:27:09.847Z,3.83
2023-06-14T16:32:10.123Z,3.90
2023-06-14T16:37:09.199Z,4.03
2023-06-14T16:42:08.571Z,3.92
2023-06-14T16:47:09.585Z,3.75
2023-06-14T16:52:09.004Z,4.13
2023-06-14T16:57:08.479Z,3.70
2023-06-14T17:02:07.741Z,4.20
2023-06-14T17:07:07.220Z,4.95
2023-06-14T17:12:07.288Z,4.65
2023-06-14T17:17:07.105Z,4.07
2023-06-14T17:22:06.687Z,4.57
2023-06-14T17:27:06.762Z,4.18
2023-06-14T17:32:06.228Z,4.32
2023-06-14T17:37:05.608Z,4.80
2023-06-14T17:42:04.874Z,4.63
2023-06-14T17:47:03.965Z,4.43
2023-06-14T17:52:02.844Z,4.20
2023-06-14T17:57:02.652Z,3.90
2023-06-14T18:02:02.346Z,4.25
2023-06-14T18:07:01.648Z,4.40
2023-06-14T18:12:00.821Z,4.25
2023-06-14T18:17:00.494Z,4.68
2023-06-14T18:21:59.640Z,4.68
2023-06-14T18:27:00.154Z,4.20
2023-06-14T18:31:59.146Z,3.65
2023-06-14T18:36:58.719Z,3.63
2023-06-14T18:41:57.871Z,4.28
2023-06-14T18:46:56.821Z,4.75
2023-06-14T18:51:55.717Z,4.05
2023-06-14T18:56:54.695Z,4.32
2023-06-14T19:01:53.720Z,3.90
2023-06-14T19:06:52.680Z,4.45
2023-06-14T19:11:51.710Z,3.75
2023-06-14T19:16:51.900Z,3.97
2023-06-14T19:21:53.105Z,3.95
2023-06-14T19:26:52.252Z,4.40
2023-06-14T19:31:54.065Z,3.97
2023-06-14T19:36:55.686Z,4.20
2023-06-14T19:41:54.705Z,4.18
2023-06-14T19:46:53.583Z,3.63
2023-06-14T19:51:52.494Z,3.75
2023-06-14T19:56:51.623Z,4.30
2023-06-14T20:01:50.559Z,4.43
2023-06-14T20:06:55.918Z,3.92
2023-06-14T20:11:55.242Z,3.90
2023-06-14T20:16:55.496Z,3.95
2023-06-14T20:21:57.024Z,4.18
2023-06-14T20:26:55.866Z,4.32
2023-06-14T20:31:54.854Z,4.75
2023-06-14T20:36:53.908Z,4.68
2023-06-14T20:41:53.561Z,4.13
2023-06-14T20:46:52.604Z,4.45
2023-06-14T20:51:53.846Z,4.40
2023-06-14T20:56:52.865Z,4.70
2023-06-14T21:01:51.718Z,4.60
2023-06-14T21:06:50.853Z,4.95
2023-06-14T21:11:49.644Z,5.35
2023-06-14T21:16:48.504Z,6.28
2023-06-14T21:21:50.037Z,4.75
2023-06-14T21:26:48.877Z,5.13
2023-06-14T21:31:48.597Z,6.35
2023-06-14T21:36:47.731Z,6.10
2023-06-14T21:41:46.534Z,6.85
2023-06-14T21:46:45.538Z,6.18
2023-06-14T21:51:45.526Z,5.68
2023-06-14T21:56:44.455Z,4.93
2023-06-14T22:01:43.388Z,5.18
2023-06-14T22:06:44.985Z,5.13
2023-06-14T22:11:46.061Z,5.60
2023-06-14T22:16:44.972Z,5.80
2023-06-14T22:21:45.620Z,5.75
2023-06-14T22:26:50.393Z,4.80
2023-06-14T22:31:53.441Z,5.15
2023-06-14T22:36:53.781Z,5.43
2023-06-14T22:41:54.635Z,5.45
2023-06-14T22:46:55.625Z,5.18
2023-06-14T22:51:57.205Z,5.95
2023-06-14T22:56:57.946Z,5.13
2023-06-14T23:01:57.380Z,5.20
2023-06-14T23:06:56.354Z,5.13
2023-06-14T23:11:55.327Z,4.80
2023-06-14T23:16:54.697Z,5.45
2023-06-14T23:21:54.280Z,5.05
2023-06-14T23:26:53.605Z,5.40
2023-06-14T23:31:53.700Z,5.78
2023-06-14T23:36:53.869Z,5.90
2023-06-14T23:41:52.800Z,6.00
2023-06-14T23:46:57.866Z,6.03
2023-06-14T23:51:58.439Z,7.00
2023-06-14T23:56:58.282Z,5.07
